createdAt,value
2023-05-22T00:02:42.927Z,2.83
2023-05-22T00:05:45.980Z,2.80
2023-05-22T00:08:48.535Z,3.00
2023-05-22T00:11:51.817Z,2.90
2023-05-22T00:14:54.437Z,2.93
2023-05-22T00:17:57.761Z,2.88
2023-05-22T00:21:00.353Z,3.20
2023-05-22T00:24:03.116Z,2.88
2023-05-22T00:27:05.944Z,3.03
2023-05-22T00:30:09.024Z,2.57
2023-05-22T00:33:12.494Z,3.03
2023-05-22T00:36:15.603Z,2.70
2023-05-22T00:39:18.162Z,2.80
2023-05-22T00:42:21.764Z,2.90
2023-05-22T00:45:24.671Z,3.00
2023-05-22T00:48:27.972Z,3.30
2023-05-22T00:51:31.088Z,3.10
2023-05-22T00:54:33.808Z,2.80
2023-05-22T00:57:38.448Z,3.15
2023-05-22T01:00:42.828Z,3.20
2023-05-22T01:03:46.944Z,2.70
2023-05-22T01:06:49.975Z,3.25
2023-05-22T01:09:52.789Z,2.80
2023-05-22T01:13:14.544Z,2.83
2023-05-22T01:16:19.030Z,2.60
2023-05-22T01:19:54.106Z,3.03
2023-05-22T01:23:22.662Z,2.80
2023-05-22T01:26:47.044Z,2.80
2023-05-22T01:30:21.502Z,2.72
2023-05-22T01:33:28.247Z,3.03
2023-05-22T01:36:35.123Z,2.78
2023-05-22T01:39:39.147Z,2.83
2023-05-22T01:42:42.361Z,2.97
2023-05-22T01:45:45.037Z,3.13
2023-05-22T01:48:47.664Z,2.80
2023-05-22T01:51:56.291Z,2.70
2023-05-22T01:55:07.598Z,2.95
2023-05-22T01:58:37.356Z,3.00
2023-05-22T02:01:40.792Z,2.95
2023-05-22T02:04:47.195Z,2.60
2023-05-22T02:07:50.978Z,2.85
2023-05-22T02:10:56.862Z,2.95
2023-05-22T02:14:00.113Z,2.90
2023-05-22T02:17:03.654Z,3.10
2023-05-22T02:20:14.454Z,3.00
2023-05-22T02:23:19.471Z,3.17
2023-05-22T02:26:22.191Z,2.85
2023-05-22T02:29:25.269Z,3.03
2023-05-22T02:32:28.547Z,3.00
2023-05-22T02:35:31.474Z,2.80
2023-05-22T02:38:34.072Z,2.67
2023-05-22T02:41:36.669Z,2.75
2023-05-22T02:44:39.345Z,3.05
2023-05-22T02:47:42.081Z,3.17
2023-05-22T02:50:44.746Z,2.70
2023-05-22T02:53:47.417Z,2.83
2023-05-22T02:56:50.090Z,3.53
2023-05-22T02:59:52.759Z,3.10
2023-05-22T03:02:55.611Z,3.38
2023-05-22T03:05:58.612Z,2.60
2023-05-22T03:09:01.360Z,3.00
2023-05-22T03:12:05.192Z,3.10
2023-05-22T03:15:08.307Z,2.70
2023-05-22T03:18:11.792Z,2.90
2023-05-22T03:21:15.473Z,2.83
2023-05-22T03:24:18.115Z,2.70
2023-05-22T03:27:21.383Z,2.92
2023-05-22T03:30:24.923Z,2.88
2023-05-22T03:33:42.159Z,2.67
2023-05-22T03:36:45.400Z,2.87
2023-05-22T03:39:49.999Z,3.40
2023-05-22T03:42:58.177Z,3.08
2023-05-22T03:46:01.348Z,3.10
2023-05-22T03:49:04.020Z,3.05
2023-05-22T03:52:06.720Z,2.90
2023-05-22T03:55:09.417Z,2.65
2023-05-22T03:58:12.238Z,3.17
2023-05-22T04:01:16.921Z,3.33
2023-05-22T04:04:19.682Z,3.00
2023-05-22T04:07:22.427Z,2.83
2023-05-22T04:10:25.226Z,2.65
2023-05-22T04:13:27.835Z,2.63
2023-05-22T04:16:30.584Z,2.83
2023-05-22T04:19:33.254Z,2.75
2023-05-22T04:22:35.978Z,2.80
2023-05-22T04:25:39.061Z,2.60
2023-05-22T04:28:46.084Z,2.80
2023-05-22T04:31:48.852Z,2.88
2023-05-22T04:34:51.553Z,3.03
2023-05-22T04:37:54.165Z,2.87
2023-05-22T04:40:58.267Z,2.40
2023-05-22T04:44:04.141Z,3.40
2023-05-22T04:47:08.202Z,2.90
2023-05-22T04:50:12.028Z,3.28
2023-05-22T04:53:14.543Z,2.63
2023-05-22T04:56:27.952Z,2.70
2023-05-22T04:59:41.540Z,3.15
2023-05-22T05:02:45.202Z,3.20
2023-05-22T05:05:47.865Z,2.90
2023-05-22T05:08:50.526Z,3.10
2023-05-22T05:11:53.616Z,2.80
2023-05-22T05:14:56.260Z,3.15
2023-05-22T05:17:58.834Z,2.83
2023-05-22T05:21:01.528Z,3.08
2023-05-22T05:24:04.101Z,2.73
2023-05-22T05:27:06.846Z,2.90
2023-05-22T05:30:10.943Z,2.80
2023-05-22T05:33:33.882Z,3.55
2023-05-22T05:36:48.646Z,3.10
2023-05-22T05:39:52.332Z,3.27
2023-05-22T05:42:56.428Z,2.92
2023-05-22T05:46:01.833Z,3.63
2023-05-22T05:49:11.592Z,3.00
2023-05-22T05:52:16.455Z,2.83
2023-05-22T05:55:20.004Z,2.63
2023-05-22T05:58:24.555Z,3.00
2023-05-22T06:01:46.228Z,3.10
2023-05-22T06:05:04.326Z,3.15
2023-05-22T06:08:23.032Z,3.58
2023-05-22T06:11:27.043Z,3.10
2023-05-22T06:14:31.398Z,3.30
2023-05-22T06:17:39.129Z,3.65
2023-05-22T06:20:42.359Z,3.40
2023-05-22T06:23:45.193Z,3.35
2023-05-22T06:26:48.977Z,3.43
2023-05-22T06:29:51.726Z,3.50
2023-05-22T06:32:55.696Z,3.50
2023-05-22T06:36:02.094Z,3.22
2023-05-22T06:39:06.987Z,3.30
2023-05-22T06:42:34.198Z,3.60
2023-05-22T06:45:57.104Z,3.55
2023-05-22T06:48:59.990Z,3.25
2023-05-22T06:52:11.173Z,3.60
2023-05-22T06:55:19.420Z,3.30
2023-05-22T06:58:36.185Z,3.30
2023-05-22T07:01:41.550Z,3.65
2023-05-22T07:08:23.966Z,3.35
2023-05-22T07:11:29.608Z,3.63
2023-05-22T07:14:32.330Z,3.33
2023-05-22T07:17:36.286Z,3.33
2023-05-22T07:20:39.573Z,3.45
2023-05-22T07:23:48.478Z,3.72
2023-05-22T07:26:51.110Z,4.07
2023-05-22T07:29:54.904Z,3.53
2023-05-22T07:32:59.057Z,3.55
2023-05-22T07:36:02.125Z,3.47
2023-05-22T07:39:06.342Z,3.75
2023-05-22T07:42:17.049Z,3.92
2023-05-22T07:45:26.902Z,3.63
2023-05-22T07:49:32.069Z,3.70
2023-05-22T07:53:17.603Z,3.42
2023-05-22T07:56:28.064Z,3.60
2023-05-22T07:59:36.088Z,3.80
2023-05-22T08:06:15.527Z,3.80
2023-05-22T08:09:18.158Z,4.03
2023-05-22T08:12:22.324Z,3.70
2023-05-22T08:15:25.072Z,4.25
2023-05-22T08:18:28.225Z,4.23
2023-05-22T08:21:34.476Z,4.03
2023-05-22T08:24:37.057Z,3.60
2023-05-22T08:27:41.946Z,3.83
2023-05-22T08:30:46.351Z,4.70
2023-05-22T08:33:50.663Z,3.83
2023-05-22T08:36:54.606Z,3.50
2023-05-22T08:39:58.534Z,3.92
2023-05-22T08:43:01.233Z,3.80
2023-05-22T08:46:06.027Z,3.88
2023-05-22T08:49:10.383Z,3.73
2023-05-22T08:52:19.044Z,3.80
2023-05-22T08:55:27.238Z,3.70
2023-05-22T08:58:43.684Z,4.10
2023-05-22T09:01:52.488Z,3.88
2023-05-22T09:05:09.427Z,3.70
2023-05-22T09:08:20.554Z,3.92
2023-05-22T09:11:25.245Z,3.70
2023-05-22T09:14:28.170Z,4.15
2023-05-22T09:17:32.088Z,4.20
2023-05-22T09:20:39.865Z,3.67
2023-05-22T09:23:43.144Z,4.05
2023-05-22T09:26:46.363Z,4.40
2023-05-22T09:29:51.278Z,3.95
2023-05-22T09:32:55.304Z,3.60
2023-05-22T09:35:58.538Z,3.60
2023-05-22T09:39:02.166Z,3.65
2023-05-22T09:42:06.286Z,3.80
2023-05-22T09:45:09.810Z,3.83
2023-05-22T09:48:13.747Z,4.32
2023-05-22T09:51:16.629Z,3.90
2023-05-22T09:54:26.414Z,3.90
2023-05-22T09:57:46.798Z,4.05
2023-05-22T10:01:09.146Z,4.03
2023-05-22T10:04:42.707Z,4.18
2023-05-22T10:08:00.321Z,4.43
2023-05-22T10:11:03.729Z,4.07
2023-05-22T10:14:07.644Z,4.30
2023-05-22T10:17:12.480Z,4.50
2023-05-22T10:20:16.795Z,4.25
2023-05-22T10:23:19.998Z,4.43
2023-05-22T10:26:23.731Z,4.10
2023-05-22T10:29:36.675Z,4.40
2023-05-22T10:32:45.466Z,3.88
2023-05-22T10:35:56.263Z,4.22
2023-05-22T10:39:37.699Z,3.97
2023-05-22T10:42:40.686Z,3.83
2023-05-22T10:46:07.639Z,4.07
2023-05-22T10:49:28.662Z,4.10
2023-05-22T10:52:31.683Z,4.57
2023-05-22T10:55:47.743Z,4.50
2023-05-22T10:58:57.959Z,4.30
2023-05-22T11:02:01.774Z,4.32
2023-05-22T11:05:17.210Z,4.28
2023-05-22T11:08:29.610Z,4.18
2023-05-22T11:11:32.534Z,4.30
2023-05-22T11:14:37.332Z,4.28
2023-05-22T11:17:40.212Z,4.18
2023-05-22T11:20:44.726Z,4.45
2023-05-22T11:23:47.558Z,4.85
2023-05-22T11:27:07.730Z,4.17
2023-05-22T11:30:11.948Z,4.30
2023-05-22T11:33:14.975Z,4.55
2023-05-22T11:36:19.144Z,4.70
2023-05-22T11:39:23.519Z,4.22
2023-05-22T11:42:26.417Z,3.97
2023-05-22T11:45:32.902Z,3.95
2023-05-22T11:48:50.001Z,4.22
2023-05-22T11:52:11.071Z,4.03
2023-05-22T11:55:14.692Z,4.35
2023-05-22T11:58:22.121Z,3.80
2023-05-22T12:01:26.816Z,4.47
2023-05-22T12:04:29.863Z,4.55
2023-05-22T12:07:32.587Z,4.60
2023-05-22T12:10:35.290Z,4.60
2023-05-22T12:13:38.176Z,4.43
2023-05-22T12:16:40.980Z,4.43
2023-05-22T12:19:45.262Z,4.65
2023-05-22T12:22:49.514Z,4.60
2023-05-22T12:26:04.822Z,4.60
2023-05-22T12:29:07.496Z,4.00
2023-05-22T12:32:12.445Z,4.47
2023-05-22T12:35:16.975Z,5.00
2023-05-22T12:38:23.167Z,4.85
2023-05-22T12:41:26.477Z,4.68
2023-05-22T12:44:29.138Z,4.80
2023-05-22T12:47:32.958Z,4.63
2023-05-22T12:50:36.010Z,4.80
2023-05-22T12:53:38.752Z,4.93
2023-05-22T12:56:42.111Z,4.70
2023-05-22T12:59:44.714Z,4.73
2023-05-22T13:02:47.797Z,4.53
2023-05-22T13:05:50.474Z,4.38
2023-05-22T13:08:53.173Z,4.28
2023-05-22T13:11:56.628Z,4.88
2023-05-22T13:15:00.091Z,5.17
2023-05-22T13:18:04.353Z,4.80
2023-05-22T13:21:07.303Z,5.07
2023-05-22T13:24:09.984Z,4.78
2023-05-22T13:27:23.076Z,4.85
2023-05-22T13:30:26.318Z,4.87
2023-05-22T13:33:30.093Z,4.20
2023-05-22T13:36:33.021Z,4.85
2023-05-22T13:39:35.789Z,4.50
2023-05-22T13:42:39.856Z,4.50
2023-05-22T13:45:42.612Z,4.20
2023-05-22T13:48:46.356Z,4.05
2023-05-22T13:51:49.113Z,4.30
2023-05-22T13:54:51.734Z,4.38
2023-05-22T13:57:55.190Z,4.25
2023-05-22T14:00:57.835Z,4.67
2023-05-22T14:04:00.526Z,4.57
2023-05-22T14:07:03.382Z,4.65
2023-05-22T14:10:06.957Z,4.30
2023-05-22T14:13:09.832Z,4.20
2023-05-22T14:16:12.373Z,4.00
2023-05-22T14:19:15.202Z,4.53
2023-05-22T14:22:19.083Z,4.57
2023-05-22T14:25:22.753Z,4.05
2023-05-22T14:28:25.328Z,4.13
2023-05-22T14:31:31.517Z,4.23
2023-05-22T14:34:34.054Z,4.07
2023-05-22T14:37:37.358Z,4.50
2023-05-22T14:40:39.944Z,4.25
2023-05-22T14:43:42.527Z,4.50
2023-05-22T14:46:45.853Z,4.33
2023-05-22T14:49:48.552Z,4.15
2023-05-22T14:52:51.391Z,4.30
2023-05-22T14:55:54.124Z,4.30
2023-05-22T14:58:57.415Z,4.53
2023-05-22T15:02:00.119Z,4.47
2023-05-22T15:05:02.969Z,4.57
2023-05-22T15:08:08.763Z,4.10
2023-05-22T15:11:11.666Z,4.32
2023-05-22T15:14:14.261Z,4.45
2023-05-22T15:17:17.078Z,4.43
2023-05-22T15:20:19.768Z,4.60
2023-05-22T15:23:25.392Z,5.00
2023-05-22T15:26:28.042Z,5.20
2023-05-22T15:29:30.827Z,4.50
2023-05-22T15:32:33.563Z,4.67
2023-05-22T15:35:36.173Z,4.28
2023-05-22T15:38:38.785Z,4.43
2023-05-22T15:41:43.178Z,4.25
2023-05-22T15:44:49.242Z,4.50
2023-05-22T15:47:51.858Z,4.60
2023-05-22T15:50:54.488Z,4.40
2023-05-22T15:53:59.818Z,4.47
2023-05-22T15:57:02.430Z,4.75
2023-05-22T16:00:06.184Z,4.72
2023-05-22T16:03:09.142Z,4.03
2023-05-22T16:06:11.878Z,4.45
2023-05-22T16:09:16.321Z,4.47
2023-05-22T16:12:19.430Z,5.25
2023-05-22T16:15:22.089Z,4.45
2023-05-22T16:18:24.888Z,4.57
2023-05-22T16:21:27.571Z,4.30
2023-05-22T16:24:30.728Z,4.43
2023-05-22T16:27:33.411Z,3.80
2023-05-22T16:30:36.321Z,4.30
2023-05-22T16:33:39.145Z,3.63
2023-05-22T16:36:41.717Z,4.25
2023-05-22T16:39:46.581Z,3.83
2023-05-22T16:42:50.051Z,3.90
2023-05-22T16:45:52.713Z,4.00
2023-05-22T16:48:55.616Z,3.90
2023-05-22T16:51:58.227Z,4.15
2023-05-22T16:55:01.368Z,4.40
2023-05-22T16:58:04.043Z,4.53
2023-05-22T17:01:07.392Z,4.03
2023-05-22T17:04:14.482Z,4.13
2023-05-22T17:07:17.125Z,4.25
2023-05-22T17:10:19.665Z,4.55
2023-05-22T17:13:22.329Z,4.30
2023-05-22T17:16:25.042Z,4.00
2023-05-22T17:19:27.695Z,3.97
2023-05-22T17:22:30.256Z,4.28
2023-05-22T17:25:32.947Z,3.92
2023-05-22T17:28:35.842Z,4.20
2023-05-22T17:31:41.009Z,4.18
2023-05-22T17:34:43.759Z,3.70
2023-05-22T17:37:46.335Z,4.00
2023-05-22T17:40:49.273Z,3.88
2023-05-22T17:43:52.298Z,3.92
2023-05-22T17:46:54.836Z,4.10
2023-05-22T17:49:57.388Z,3.80
2023-05-22T17:53:00.050Z,3.95
2023-05-22T17:56:02.746Z,4.35
2023-05-22T17:59:07.771Z,3.80
2023-05-22T18:02:10.989Z,3.92
2023-05-22T18:05:13.598Z,3.60
2023-05-22T18:08:17.579Z,3.95
2023-05-22T18:11:20.258Z,4.10
2023-05-22T18:14:22.898Z,3.60
2023-05-22T18:17:25.609Z,3.92
2023-05-22T18:20:28.301Z,3.93
2023-05-22T18:23:31.126Z,3.70
2023-05-22T18:26:34.086Z,3.80
2023-05-22T18:29:37.654Z,3.92
2023-05-22T18:32:40.703Z,3.90
2023-05-22T18:35:43.690Z,4.00
2023-05-22T18:38:46.744Z,3.78
2023-05-22T18:41:49.534Z,3.90
2023-05-22T18:44:52.388Z,4.03
2023-05-22T18:47:55.211Z,4.25
2023-05-22T18:50:59.009Z,3.90
2023-05-22T18:54:01.761Z,3.75
2023-05-22T18:57:04.996Z,3.67
2023-05-22T19:00:10.477Z,3.55
2023-05-22T19:03:14.328Z,3.80
2023-05-22T19:06:18.957Z,3.50
2023-05-22T19:09:22.641Z,3.47
2023-05-22T19:12:31.648Z,3.67
2023-05-22T19:15:35.353Z,3.97
2023-05-22T19:18:38.893Z,4.13
2023-05-22T19:21:42.412Z,3.70
2023-05-22T19:24:46.024Z,4.13
2023-05-22T19:27:50.262Z,3.83
2023-05-22T19:30:57.712Z,3.38
2023-05-22T19:34:02.101Z,3.80
2023-05-22T19:37:10.704Z,3.70
2023-05-22T19:40:17.126Z,3.95
2023-05-22T19:43:26.346Z,4.25
2023-05-22T19:46:32.205Z,3.78
2023-05-22T19:49:37.346Z,3.65
2023-05-22T19:53:01.859Z,3.90
2023-05-22T19:56:10.653Z,3.75
2023-05-22T19:59:21.223Z,3.53
2023-05-22T20:02:29.752Z,3.80
2023-05-22T20:05:33.601Z,3.78
2023-05-22T20:08:42.937Z,3.53
2023-05-22T20:11:53.157Z,3.50
2023-05-22T20:14:58.595Z,3.45
2023-05-22T20:18:04.022Z,3.83
2023-05-22T20:21:10.244Z,3.58
2023-05-22T20:24:17.630Z,3.37
2023-05-22T20:27:20.325Z,4.22
2023-05-22T20:30:23.137Z,3.20
2023-05-22T20:33:26.689Z,3.58
2023-05-22T20:36:29.468Z,4.10
2023-05-22T20:39:32.320Z,3.67
2023-05-22T20:42:38.458Z,3.50
2023-05-22T20:45:45.760Z,3.88
2023-05-22T20:48:49.158Z,3.38
2023-05-22T20:51:51.739Z,3.58
2023-05-22T20:54:54.313Z,3.67
2023-05-22T20:57:56.985Z,3.78
2023-05-22T21:00:59.590Z,3.72
2023-05-22T21:04:02.897Z,3.40
2023-05-22T21:07:05.522Z,3.85
2023-05-22T21:10:08.580Z,3.50
2023-05-22T21:13:11.325Z,3.65
2023-05-22T21:16:13.935Z,3.70
2023-05-22T21:19:16.710Z,3.65
2023-05-22T21:22:19.414Z,3.40
2023-05-22T21:25:23.597Z,3.30
2023-05-22T21:28:26.205Z,3.45
2023-05-22T21:31:28.768Z,3.28
2023-05-22T21:34:31.346Z,3.95
2023-05-22T21:37:33.972Z,3.53
2023-05-22T21:40:36.592Z,3.10
2023-05-22T21:43:39.392Z,3.80
2023-05-22T21:46:41.989Z,3.42
2023-05-22T21:49:44.522Z,3.70
2023-05-22T21:52:47.118Z,3.30
2023-05-22T21:55:50.349Z,3.60
2023-05-22T21:58:53.417Z,3.30
2023-05-22T22:01:56.015Z,3.50
2023-05-22T22:04:58.697Z,3.17
2023-05-22T22:08:01.274Z,4.00
2023-05-22T22:11:03.878Z,3.20
2023-05-22T22:14:08.410Z,3.00
2023-05-22T22:17:10.930Z,3.08
2023-05-22T22:20:13.527Z,3.55
2023-05-22T22:23:16.202Z,3.25
2023-05-22T22:26:18.783Z,3.13
2023-05-22T22:29:21.315Z,3.30
2023-05-22T22:32:23.945Z,2.88
2023-05-22T22:35:26.491Z,3.25
2023-05-22T22:38:32.786Z,3.40
2023-05-22T22:41:35.340Z,3.30
2023-05-22T22:44:38.079Z,3.10
2023-05-22T22:47:40.764Z,2.92
2023-05-22T22:50:44.123Z,3.40
2023-05-22T22:53:46.782Z,3.40
2023-05-22T22:56:52.372Z,3.63
2023-05-22T22:59:54.975Z,3.50
2023-05-22T23:02:57.756Z,3.45
2023-05-22T23:06:00.329Z,3.10
2023-05-22T23:09:04.050Z,3.40
2023-05-22T23:12:08.613Z,3.37
2023-05-22T23:15:13.449Z,3.00
2023-05-22T23:18:16.402Z,3.22
2023-05-22T23:21:19.017Z,3.30
2023-05-22T23:24:21.601Z,3.30
2023-05-22T23:27:24.612Z,3.30
2023-05-22T23:30:27.127Z,3.35
2023-05-22T23:33:29.745Z,3.10
2023-05-22T23:36:32.748Z,3.35
2023-05-22T23:39:35.265Z,3.35
2023-05-22T23:42:37.896Z,3.07
2023-05-22T23:45:40.939Z,3.35
2023-05-22T23:48:43.569Z,3.28
2023-05-22T23:51:46.075Z,2.85
2023-05-22T23:54:48.726Z,3.50
2023-05-22T23:57:51.240Z,2.93
